Aeroporto :







RITROVATECI SU...

 
LOGIN :

Iscrizione | Disclaimer

   EN    FR    IT 

 









Sommario :    VFR   VFR Marginale   IFR   IFR Intensivo   IFR Molto Intensivo
Visibilità : 
Base nubi : 
>= 8 km
>= 3000ft
5 / 8 km
1000 / 3000 ft
1500m / 5 km
500 / 1000 ft
800 / 1500m
200 / 500 ft
< 800m
< 200 ft
Simboli :   Temporali  Nebbia  Neve Forte  Precipitazioni Forti  Vento > 20 kt






- Altitudine del aeroporto : 988 ft


KFVE - Northern Aroostook Regional

ULTIMO METAR :
  • 250453Z AUTO 31007KT 10SM CLR 02/M04 A2988 RMK AO2 SLP126 T00221039 400891061

METARs OBSOLETI :
  • 250353Z AUTO 32006KT 10SM CLR 02/M04 A2987 RMK AO2 SLP123 T00221044
  • 250253Z AUTO 26010KT 10SM CLR 03/M04 A2985 RMK AO2 SLP117 T00331044 53008

TAF KFVE
Valido dal 25 a 00 ore il 26 a 00 ore UTC


242320Z 2500/2524 23005KT P6SM SCT080
FM251800 32006KT P6SM SCT050



MetMap, La meteo Aeronautica in un colpo d'occhio ! - Copyright ORBIFLY Dicembre 2007 - Disclaimer

ORBIFLY MET'MAP TEAM :

Programmazione e sviluppo : Alexandra Zaïnal
Concezione : Baudouin d'Aumeries
Aiuto per la programmazione : Marc-Olivier Méhu
Supporto tecnico e logistico : Manuel Goepfert
Aiuto per la traduzione : Arnaldo La Scala

Contatto : metmap@orbifly.com




FONTI E CREDITI :

   NOAA